createdAt,value
2024-03-02T00:02:42.320Z,17.90
2024-03-02T00:05:44.386Z,18.60
2024-03-02T00:08:46.583Z,16.95
2024-03-02T00:11:48.655Z,19.10
2024-03-02T00:14:50.917Z,18.20
2024-03-02T00:17:55.925Z,18.63
2024-03-02T00:20:58.605Z,18.15
2024-03-02T00:24:01.039Z,18.30
2024-03-02T00:27:04.940Z,19.23
2024-03-02T00:30:26.925Z,17.83
2024-03-02T00:33:31.582Z,18.37
2024-03-02T00:36:33.770Z,17.55
2024-03-02T00:39:35.824Z,18.67
2024-03-02T00:42:37.924Z,18.13
2024-03-02T00:45:40.975Z,18.80
2024-03-02T00:49:02.135Z,19.30
2024-03-02T00:52:04.726Z,18.73
2024-03-02T00:55:07.013Z,19.70
2024-03-02T00:58:09.019Z,19.52
2024-03-02T01:01:11.159Z,20.00
2024-03-02T01:04:15.251Z,19.37
2024-03-02T01:07:17.413Z,18.52
2024-03-02T01:10:19.754Z,18.63
2024-03-02T01:13:23.198Z,18.92
2024-03-02T01:16:25.219Z,19.00
2024-03-02T01:19:27.578Z,17.83
2024-03-02T01:22:29.647Z,18.33
2024-03-02T01:25:31.684Z,18.08
2024-03-02T01:28:33.809Z,18.08
2024-03-02T01:31:35.786Z,19.57
2024-03-02T01:34:37.795Z,19.27
2024-03-02T01:37:39.850Z,18.92
2024-03-02T01:40:43.129Z,18.45
2024-03-02T01:43:45.132Z,17.63
2024-03-02T01:46:47.224Z,16.97
2024-03-02T01:49:49.248Z,18.00
2024-03-02T01:52:51.482Z,18.73
2024-03-02T01:55:53.458Z,20.73
2024-03-02T01:58:55.500Z,17.75
2024-03-02T02:01:57.482Z,18.33
2024-03-02T02:04:59.500Z,19.43
2024-03-02T02:08:02.264Z,18.50
2024-03-02T02:11:04.460Z,19.63
2024-03-02T02:14:07.429Z,19.40
2024-03-02T02:17:09.540Z,18.17
2024-03-02T02:20:11.876Z,19.47
2024-03-02T02:23:14.915Z,18.98
2024-03-02T02:26:17.121Z,18.30
2024-03-02T02:29:19.160Z,18.17
2024-03-02T02:32:21.259Z,17.33
2024-03-02T02:35:23.357Z,18.37
2024-03-02T02:38:25.374Z,18.27
2024-03-02T02:41:27.461Z,17.92
2024-03-02T02:44:29.466Z,18.08
2024-03-02T02:47:31.653Z,18.17
2024-03-02T02:50:33.726Z,18.97
2024-03-02T02:53:36.686Z,18.65
2024-03-02T02:56:38.746Z,18.17
2024-03-02T02:59:40.769Z,17.83
2024-03-02T03:02:43.583Z,17.87
2024-03-02T03:05:45.569Z,17.30
2024-03-02T03:08:47.605Z,18.33
2024-03-02T03:11:49.631Z,17.48
2024-03-02T03:14:51.649Z,17.50
2024-03-02T03:17:53.721Z,17.37
2024-03-02T03:20:56.000Z,18.30
2024-03-02T03:23:58.057Z,17.35
2024-03-02T03:27:00.098Z,17.00
2024-03-02T03:30:02.154Z,16.55
2024-03-02T03:33:04.242Z,16.73
2024-03-02T03:36:06.259Z,18.27
2024-03-02T03:39:08.287Z,17.90
2024-03-02T03:42:10.352Z,18.60
2024-03-02T03:45:12.480Z,17.73
2024-03-02T03:48:14.641Z,17.87
2024-03-02T03:51:16.812Z,17.33
2024-03-02T03:54:18.963Z,18.35
2024-03-02T03:57:21.243Z,18.00
2024-03-02T04:00:23.268Z,18.65
2024-03-02T04:03:25.564Z,18.27
2024-03-02T04:06:27.638Z,17.77
2024-03-02T04:09:29.674Z,17.83
2024-03-02T04:12:31.842Z,17.63
2024-03-02T04:15:34.023Z,18.42
2024-03-02T04:18:36.354Z,17.97
2024-03-02T04:21:38.470Z,17.80
2024-03-02T04:24:40.678Z,18.88
2024-03-02T04:27:42.773Z,19.00
2024-03-02T04:30:44.837Z,18.80
2024-03-02T04:33:46.912Z,21.67
2024-03-02T04:36:49.703Z,20.27
2024-03-02T04:39:51.905Z,21.77
2024-03-02T04:42:54.275Z,23.55
2024-03-02T04:45:56.380Z,23.20
2024-03-02T04:48:58.643Z,22.10
2024-03-02T04:52:00.850Z,20.80
2024-03-02T04:55:18.575Z,20.70
2024-03-02T04:58:20.618Z,21.05
2024-03-02T05:01:22.794Z,19.95
2024-03-02T05:04:24.866Z,19.40
2024-03-02T05:07:26.864Z,21.10
2024-03-02T05:10:28.980Z,20.27
2024-03-02T05:13:31.034Z,21.10
2024-03-02T05:16:36.628Z,19.60
2024-03-02T05:19:39.273Z,20.80
2024-03-02T05:22:41.478Z,20.63
2024-03-02T05:25:43.504Z,18.88
2024-03-02T05:28:45.570Z,20.67
2024-03-02T05:31:47.769Z,20.83
2024-03-02T05:34:49.768Z,18.90
2024-03-02T05:37:51.837Z,19.27
2024-03-02T05:40:53.933Z,19.10
2024-03-02T05:43:55.983Z,22.13
2024-03-02T05:46:58.032Z,18.50
2024-03-02T05:50:00.074Z,20.50
2024-03-02T05:53:02.165Z,23.27
2024-03-02T05:56:05.874Z,18.25
2024-03-02T05:59:14.320Z,19.92
2024-03-02T06:02:16.422Z,19.73
2024-03-02T06:05:19.984Z,20.57
2024-03-02T06:08:22.208Z,20.70
2024-03-02T06:11:24.326Z,20.05
2024-03-02T06:14:26.419Z,20.27
2024-03-02T06:17:28.624Z,19.80
2024-03-02T06:20:36.223Z,21.73
2024-03-02T06:23:38.744Z,20.00
2024-03-02T06:26:40.863Z,20.98
2024-03-02T06:29:45.997Z,21.45
2024-03-02T06:32:48.064Z,20.30
2024-03-02T06:35:50.488Z,20.37
2024-03-02T06:38:52.512Z,20.03
2024-03-02T06:41:54.578Z,22.27
2024-03-02T06:44:57.104Z,20.75
2024-03-02T06:47:59.146Z,22.15
2024-03-02T06:51:01.368Z,21.47
2024-03-02T06:54:03.488Z,22.67
2024-03-02T06:57:05.529Z,23.50
2024-03-02T07:00:10.152Z,26.75
2024-03-02T07:03:12.366Z,26.50
2024-03-02T07:06:14.508Z,23.60
2024-03-02T07:09:16.547Z,24.57
2024-03-02T07:12:18.666Z,28.65
2024-03-02T07:15:29.587Z,26.17
2024-03-02T07:18:32.080Z,23.73
2024-03-02T07:21:34.681Z,23.97
2024-03-02T07:24:43.108Z,23.07
2024-03-02T07:27:45.390Z,27.92
2024-03-02T07:30:47.541Z,26.65
2024-03-02T07:33:49.688Z,25.10
2024-03-02T07:36:52.130Z,66.93
2024-03-02T07:39:54.304Z,28.97
2024-03-02T07:42:56.648Z,24.55
2024-03-02T07:45:58.903Z,23.77
2024-03-02T07:49:00.983Z,22.38
2024-03-02T07:52:03.166Z,22.03
2024-03-02T07:55:06.235Z,20.73
2024-03-02T07:58:08.361Z,20.95
2024-03-02T08:01:10.459Z,22.25
2024-03-02T08:04:12.533Z,21.23
2024-03-02T08:07:14.816Z,22.17
2024-03-02T08:10:17.128Z,23.27
2024-03-02T08:13:19.182Z,22.27
2024-03-02T08:16:21.316Z,21.85
2024-03-02T08:19:23.817Z,22.10
2024-03-02T08:22:28.527Z,21.63
2024-03-02T08:25:30.642Z,21.73
2024-03-02T08:28:32.755Z,22.30
2024-03-02T08:31:34.765Z,21.70
2024-03-02T08:34:36.786Z,22.65
2024-03-02T08:37:42.660Z,22.00
2024-03-02T08:40:45.688Z,21.60
2024-03-02T08:43:47.753Z,22.48
2024-03-02T08:46:49.767Z,21.73
2024-03-02T08:49:51.796Z,21.80
2024-03-02T08:52:53.877Z,20.90
2024-03-02T08:55:57.421Z,23.40
2024-03-02T08:59:00.255Z,24.45
2024-03-02T09:02:02.306Z,22.58
2024-03-02T09:05:05.070Z,22.58
2024-03-02T09:08:07.168Z,21.87
2024-03-02T09:11:09.308Z,22.03
2024-03-02T09:14:11.347Z,21.02
2024-03-02T09:17:13.659Z,22.17
2024-03-02T09:20:15.820Z,21.23
2024-03-02T09:23:17.852Z,22.13
2024-03-02T09:26:21.931Z,22.27
2024-03-02T09:29:24.888Z,21.42
2024-03-02T09:32:26.980Z,20.90
2024-03-02T09:35:29.017Z,20.90
2024-03-02T09:38:32.953Z,20.10
2024-03-02T09:41:35.010Z,20.80
2024-03-02T09:44:37.075Z,20.38
2024-03-02T09:47:39.376Z,20.85
2024-03-02T09:50:42.127Z,19.88
2024-03-02T09:53:44.223Z,20.03
2024-03-02T09:56:46.407Z,19.87
2024-03-02T09:59:48.403Z,20.38
2024-03-02T10:02:50.547Z,22.10
2024-03-02T10:05:53.074Z,20.70
2024-03-02T10:08:59.861Z,19.90
2024-03-02T10:12:05.936Z,18.17
2024-03-02T10:15:08.898Z,18.83
2024-03-02T10:18:14.628Z,19.70
2024-03-02T10:21:16.759Z,29.17
2024-03-02T10:24:19.577Z,29.70
2024-03-02T10:27:24.789Z,24.10
2024-03-02T10:30:27.501Z,20.50
2024-03-02T10:33:29.640Z,19.92
2024-03-02T10:36:32.094Z,17.95
2024-03-02T10:39:36.853Z,17.97
2024-03-02T10:42:40.144Z,18.73
2024-03-02T10:45:42.293Z,19.08
2024-03-02T10:48:46.474Z,17.83
2024-03-02T10:51:48.556Z,15.57
2024-03-02T10:54:50.604Z,16.03
2024-03-02T10:57:55.083Z,14.23
2024-03-02T11:00:57.688Z,14.10
2024-03-02T11:04:00.321Z,13.90
2024-03-02T11:07:06.391Z,12.85
2024-03-02T11:10:10.187Z,13.10
2024-03-02T11:13:15.482Z,14.10
2024-03-02T11:16:23.229Z,12.82
2024-03-02T11:19:25.822Z,13.10
2024-03-02T11:22:28.156Z,12.85
2024-03-02T11:25:32.792Z,12.73
2024-03-02T11:28:38.197Z,21.50
2024-03-02T11:31:58.710Z,24.00
2024-03-02T11:35:00.881Z,14.38
2024-03-02T11:38:04.467Z,13.10
2024-03-02T11:41:09.692Z,12.90
2024-03-02T11:44:13.149Z,11.77
2024-03-02T11:47:15.955Z,13.30
2024-03-02T11:50:31.356Z,11.95
2024-03-02T11:53:36.161Z,12.85
2024-03-02T11:56:38.665Z,13.47
2024-03-02T11:59:41.794Z,13.23
2024-03-02T12:02:48.716Z,13.52
2024-03-02T12:05:51.426Z,13.60
2024-03-02T12:08:54.753Z,13.40
2024-03-02T12:12:06.932Z,13.20
2024-03-02T12:15:08.968Z,12.80
2024-03-02T12:18:11.227Z,13.52
2024-03-02T12:21:13.314Z,14.00
2024-03-02T12:24:15.403Z,13.52
2024-03-02T12:27:17.724Z,13.80
2024-03-02T12:30:20.022Z,15.63
2024-03-02T12:33:22.340Z,20.17
2024-03-02T12:36:24.560Z,16.10
2024-03-02T12:39:26.694Z,20.85
2024-03-02T12:42:28.993Z,23.10
2024-03-02T12:45:31.132Z,21.60
2024-03-02T12:48:33.384Z,23.52
2024-03-02T12:51:36.223Z,24.35
2024-03-02T12:54:38.321Z,20.58
2024-03-02T12:57:43.502Z,19.83
2024-03-02T13:00:46.175Z,15.97
2024-03-02T13:03:54.175Z,14.68
2024-03-02T13:06:58.917Z,14.77
2024-03-02T13:10:01.278Z,9.93
2024-03-02T13:13:03.475Z,14.13
2024-03-02T13:16:09.106Z,15.33
2024-03-02T13:19:14.081Z,12.40
2024-03-02T13:22:16.154Z,9.93
2024-03-02T13:25:18.637Z,10.68
2024-03-02T13:28:20.706Z,11.53
2024-03-02T13:31:23.399Z,9.43
2024-03-02T13:34:25.478Z,9.88
2024-03-02T13:37:27.529Z,10.30
2024-03-02T13:40:30.341Z,10.52
2024-03-02T13:43:36.340Z,9.13
2024-03-02T13:46:38.432Z,9.23
2024-03-02T13:49:44.788Z,9.85
2024-03-02T13:52:46.919Z,10.40
2024-03-02T13:55:49.099Z,9.95
2024-03-02T13:58:51.219Z,7.07
2024-03-02T14:01:53.350Z,6.70
2024-03-02T14:04:55.526Z,8.00
2024-03-02T14:07:57.644Z,7.88
2024-03-02T14:11:01.667Z,7.47
2024-03-02T14:14:04.235Z,7.33
2024-03-02T14:17:07.587Z,7.30
2024-03-02T14:20:12.800Z,6.70
2024-03-02T14:23:15.442Z,7.75
2024-03-02T14:26:17.735Z,6.07
2024-03-02T14:29:19.832Z,6.90
2024-03-02T14:32:22.035Z,6.33
2024-03-02T14:35:24.329Z,7.20
2024-03-02T14:38:26.348Z,7.70
2024-03-02T14:41:28.543Z,7.28
2024-03-02T14:44:30.643Z,7.77
2024-03-02T14:47:32.885Z,7.70
2024-03-02T14:50:34.957Z,7.65
2024-03-02T14:53:37.867Z,8.00
2024-03-02T14:56:39.956Z,8.45
2024-03-02T14:59:41.996Z,7.63
2024-03-02T15:02:44.122Z,8.00
2024-03-02T15:05:46.879Z,7.35
2024-03-02T15:08:49.212Z,7.50
2024-03-02T15:11:51.232Z,7.70
2024-03-02T15:14:53.261Z,6.80
2024-03-02T15:17:55.432Z,7.70
2024-03-02T15:20:57.636Z,7.70
2024-03-02T15:23:59.718Z,20.65
2024-03-02T15:27:05.353Z,47.50
2024-03-02T15:30:07.978Z,15.40
2024-03-02T15:33:10.053Z,35.50
2024-03-02T15:36:12.178Z,23.30
2024-03-02T15:39:14.309Z,13.02
2024-03-02T15:42:16.395Z,29.80
2024-03-02T15:45:18.560Z,27.07
2024-03-02T15:48:21.288Z,42.87
2024-03-02T15:51:23.358Z,24.65
2024-03-02T15:54:25.461Z,31.00
2024-03-02T15:57:27.580Z,15.82
2024-03-02T16:00:29.712Z,14.77
2024-03-02T16:03:34.049Z,18.30
2024-03-02T16:06:36.318Z,17.58
2024-03-02T16:09:38.474Z,20.60
2024-03-02T16:12:40.855Z,17.45
2024-03-02T16:15:42.994Z,20.87
2024-03-02T16:18:45.230Z,30.67
2024-03-02T16:21:47.364Z,14.45
2024-03-02T16:24:49.481Z,23.30
2024-03-02T16:27:52.387Z,15.02
2024-03-02T16:30:55.426Z,15.30
2024-03-02T16:33:57.559Z,14.50
2024-03-02T16:36:59.768Z,13.70
2024-03-02T16:40:01.905Z,15.65
2024-03-02T16:43:04.214Z,25.77
2024-03-02T16:46:07.781Z,20.10
2024-03-02T16:49:10.355Z,20.77
2024-03-02T16:52:13.860Z,22.40
2024-03-02T16:55:16.209Z,60.10
2024-03-02T16:58:20.351Z,22.92
2024-03-02T17:01:22.399Z,29.87
2024-03-02T17:04:25.138Z,14.30
2024-03-02T17:07:30.194Z,20.40
2024-03-02T17:10:32.231Z,18.80
2024-03-02T17:13:34.279Z,20.45
2024-03-02T17:16:36.409Z,19.53
2024-03-02T17:19:38.450Z,16.53
2024-03-02T17:22:40.495Z,19.48
2024-03-02T17:25:43.121Z,24.67
2024-03-02T17:28:46.311Z,49.05
2024-03-02T17:31:48.493Z,60.43
2024-03-02T17:34:50.518Z,54.17
2024-03-02T17:37:53.521Z,22.98
2024-03-02T17:40:55.788Z,29.00
2024-03-02T17:44:00.675Z,19.48
2024-03-02T17:47:02.717Z,25.80
2024-03-02T17:50:05.715Z,24.57
2024-03-02T17:53:07.823Z,20.80
2024-03-02T17:56:12.751Z,25.95
2024-03-02T17:59:14.815Z,24.02
2024-03-02T18:02:16.864Z,20.10
2024-03-02T18:05:18.894Z,20.00
2024-03-02T18:08:20.982Z,35.25
2024-03-02T18:11:25.687Z,31.63
2024-03-02T18:14:28.131Z,19.58
2024-03-02T18:17:30.197Z,22.03
2024-03-02T18:20:34.268Z,25.90
2024-03-02T18:23:36.296Z,20.75
2024-03-02T18:26:38.421Z,28.17
2024-03-02T18:29:40.660Z,35.30
2024-03-02T18:32:44.043Z,28.53
2024-03-02T18:35:46.452Z,48.43
2024-03-02T18:38:48.512Z,26.13
2024-03-02T18:41:50.727Z,20.55
2024-03-02T18:44:52.823Z,22.45
2024-03-02T18:47:55.240Z,18.47
2024-03-02T18:50:57.322Z,20.93
2024-03-02T18:53:59.388Z,20.67
2024-03-02T18:57:01.508Z,19.50
2024-03-02T19:00:06.576Z,19.67
2024-03-02T19:03:11.149Z,19.10
2024-03-02T19:06:16.782Z,21.87
2024-03-02T19:09:18.913Z,20.70
2024-03-02T19:12:21.126Z,19.85
2024-03-02T19:15:23.235Z,22.13
2024-03-02T19:18:25.266Z,19.83
2024-03-02T19:21:27.344Z,21.50
2024-03-02T19:24:29.444Z,22.02
2024-03-02T19:27:31.533Z,23.45
2024-03-02T19:30:33.681Z,21.17
2024-03-02T19:33:35.821Z,20.67
2024-03-02T19:36:38.036Z,22.17
2024-03-02T19:39:43.147Z,19.85
2024-03-02T19:42:47.135Z,21.38
2024-03-02T19:45:49.257Z,21.00
2024-03-02T19:48:51.822Z,23.50
2024-03-02T19:51:53.917Z,21.03
2024-03-02T19:54:56.074Z,19.70
2024-03-02T19:57:58.634Z,19.95
2024-03-02T20:01:00.835Z,18.40
2024-03-02T20:04:03.031Z,18.23
2024-03-02T20:07:05.613Z,18.37
2024-03-02T20:10:08.209Z,19.15
2024-03-02T20:13:10.351Z,19.92
2024-03-02T20:16:12.501Z,18.40
2024-03-02T20:19:14.670Z,42.40
2024-03-02T20:22:16.800Z,19.37
2024-03-02T20:25:18.945Z,19.48
2024-03-02T20:28:21.517Z,20.58
2024-03-02T20:31:23.719Z,21.80
2024-03-02T20:34:26.359Z,28.10
2024-03-02T20:37:29.152Z,27.77
2024-03-02T20:40:31.256Z,22.33
2024-03-02T20:43:33.324Z,28.10
2024-03-02T20:46:35.373Z,41.42
2024-03-02T20:49:37.688Z,30.10
2024-03-02T20:52:39.816Z,25.20
2024-03-02T20:55:41.905Z,31.10
2024-03-02T20:58:46.035Z,31.90
2024-03-02T21:01:48.775Z,27.88
2024-03-02T21:04:50.886Z,24.93
2024-03-02T21:07:53.102Z,27.27
2024-03-02T21:10:55.398Z,28.77
2024-03-02T21:13:57.767Z,28.50
2024-03-02T21:16:59.912Z,25.05
2024-03-02T21:20:01.970Z,30.80
2024-03-02T21:23:04.239Z,26.50
2024-03-02T21:26:06.472Z,26.17
2024-03-02T21:29:08.894Z,23.52
2024-03-02T21:32:11.451Z,33.30
2024-03-02T21:35:13.522Z,36.97
2024-03-02T21:38:15.991Z,35.93
2024-03-02T21:41:18.035Z,31.92
2024-03-02T21:44:20.049Z,24.05
2024-03-02T21:47:22.090Z,25.88
2024-03-02T21:50:27.726Z,31.40
2024-03-02T21:53:29.833Z,20.90
2024-03-02T21:56:32.064Z,21.58
2024-03-02T21:59:34.607Z,24.45
2024-03-02T22:02:36.718Z,19.90
2024-03-02T22:05:38.798Z,19.90
2024-03-02T22:08:41.073Z,21.43
2024-03-02T22:11:43.134Z,22.70
2024-03-02T22:14:45.155Z,18.52
2024-03-02T22:17:47.305Z,20.48
2024-03-02T22:20:49.337Z,19.43
2024-03-02T22:23:51.328Z,20.73
2024-03-02T22:26:53.707Z,19.27
2024-03-02T22:29:55.713Z,24.88
2024-03-02T22:32:58.477Z,20.70
2024-03-02T22:36:00.593Z,22.23
2024-03-02T22:39:02.705Z,21.93
2024-03-02T22:42:04.934Z,29.05
2024-03-02T22:45:08.360Z,25.73
2024-03-02T22:48:10.472Z,25.17
2024-03-02T22:51:19.986Z,29.30
2024-03-02T22:54:22.015Z,22.90
2024-03-02T22:57:24.030Z,27.17
2024-03-02T23:00:31.749Z,23.30
2024-03-02T23:03:34.546Z,27.85
2024-03-02T23:06:36.641Z,24.40
2024-03-02T23:09:38.780Z,23.60
2024-03-02T23:12:41.062Z,21.20
2024-03-02T23:15:43.258Z,22.30
2024-03-02T23:18:45.423Z,20.58
2024-03-02T23:21:47.914Z,24.27
2024-03-02T23:24:50.008Z,24.07
2024-03-02T23:27:52.077Z,19.42
2024-03-02T23:30:54.992Z,20.15
2024-03-02T23:34:00.327Z,20.35
2024-03-02T23:37:02.883Z,19.40
2024-03-02T23:40:05.181Z,18.50
2024-03-02T23:43:09.356Z,19.75
2024-03-02T23:46:12.464Z,21.10
2024-03-02T23:49:14.715Z,21.05
2024-03-02T23:52:17.038Z,25.97
2024-03-02T23:55:19.230Z,27.13
2024-03-02T23:58:21.480Z,26.75
